Time;durP1;ratioP1;P1;durP2;ratioP2;P2;SDS_P1;SDS_P2;PMS_P1;PMS_P2;Temp;Humidity;BMP_temperature;BMP_pressure;BME280_temperature;BME280_humidity;BME280_pressure;Samples;Min_cycle;Max_cycle;Signal;HPM_P1;HPM_P2
2023/07/16 00:01:12;;;;;;;;;;;;;;;15.78;100.00;100901.41;5059374;28;20076;-44
2023/07/16 00:03:37;;;;;;;;;;;;;;;15.73;100.00;100910.88;5063546;28;19925;-45
2023/07/16 00:06:03;;;;;;;;;;;;;;;15.70;100.00;100904.78;5058782;28;19988;-46
2023/07/16 00:08:28;;;;;;;;;;;;;;;15.65;100.00;100904.75;5064112;28;20390;-45
2023/07/16 00:10:53;;;;;;;;;;;;;;;15.62;100.00;100909.00;5044087;28;19945;-44
2023/07/16 00:13:18;;;;;;;;;;;;;;;15.55;100.00;100911.53;5063068;28;19959;-45
2023/07/16 00:15:44;;;;;;;;;;;;;;;15.51;100.00;100920.13;5061658;28;19921;-46
2023/07/16 00:18:09;;;;;;;;;;;;;;;15.51;100.00;100916.69;5065614;28;20289;-47
2023/07/16 00:20:34;;;;;;;;;;;;;;;15.48;100.00;100922.72;5060104;27;19960;-46
2023/07/16 00:22:59;;;;;;;;;;;;;;;15.50;100.00;100925.31;5062280;28;19921;-50
2023/07/16 00:25:25;;;;;;;;;;;;;;;15.50;100.00;100927.91;5062854;28;19916;-49
2023/07/16 00:27:50;;;;;;;;;;;;;;;15.47;100.00;100928.75;5059726;28;19925;-47
2023/07/16 00:30:15;;;;;;;;;;;;;;;15.46;100.00;100927.00;5037296;28;20014;-46
2023/07/16 00:32:40;;;;;;;;;;;;;;;15.44;100.00;100923.53;5063117;27;19924;-49
2023/07/16 00:35:06;;;;;;;;;;;;;;;15.43;100.00;100923.53;5055495;27;19935;-49
2023/07/16 00:37:31;;;;;;;;;;;;;;;15.37;100.00;100926.06;5058793;28;21788;-47
2023/07/16 00:39:56;;;;;;;;;;;;;;;15.36;100.00;100926.94;5054356;27;20401;-46
2023/07/16 00:42:22;;;;;;;;;;;;;;;15.33;100.00;100930.34;5037718;28;20001;-46
2023/07/16 00:44:47;;;;;;;;;;;;;;;15.31;100.00;100924.28;5058373;28;20413;-46
2023/07/16 00:47:12;;;;;;;;;;;;;;;15.28;100.00;100921.66;5060334;28;20298;-49
2023/07/16 00:49:38;;;;;;;;;;;;;;;15.30;100.00;100922.56;5065371;28;20294;-48
2023/07/16 00:52:04;;;;;;;;;;;;;;;15.27;100.00;100932.88;5062499;28;20031;-49
2023/07/16 00:54:30;;;;;;;;;;;;;;;15.27;100.00;100922.50;5063741;28;19968;-44
2023/07/16 00:56:56;;;;;;;;;;;;;;;15.26;100.00;100923.38;5058963;28;19936;-48
2023/07/16 00:59:21;;;;;;;;;;;;;;;15.25;100.00;100916.44;5061051;27;19925;-46
2023/07/16 01:01:46;;;;;;;;;;;;;;;15.24;100.00;100925.09;5060364;27;20052;-45
2023/07/16 01:04:12;;;;;;;;;;;;;;;15.20;100.00;100925.91;5058158;28;19932;-45
2023/07/16 01:06:41;;;;;;;;;;;;;;;15.20;100.00;100923.31;5062334;28;20027;-46
2023/07/16 01:09:07;;;;;;;;;;;;;;;15.20;100.00;100933.66;5058716;28;19920;-47
2023/07/16 01:11:35;;;;;;;;;;;;;;;15.19;100.00;100934.53;5062536;27;19969;-46
2023/07/16 01:14:01;;;;;;;;;;;;;;;15.14;100.00;100933.59;5040717;28;19925;-46
2023/07/16 01:16:27;;;;;;;;;;;;;;;15.15;100.00;100940.50;5060074;28;19932;-45
2023/07/16 01:18:52;;;;;;;;;;;;;;;15.09;100.00;100912.81;5063592;28;19965;-46
2023/07/16 01:21:19;;;;;;;;;;;;;;;15.09;100.00;100925.78;5063456;28;19928;-50
2023/07/16 01:24:14;;;;;;;;;;;;;;;15.08;100.00;100934.41;5057146;28;19941;-49
2023/07/16 01:26:50;;;;;;;;;;;;;;;15.09;100.00;100935.28;5111171;28;19915;-45
2023/07/16 01:29:26;;;;;;;;;;;;;;;15.07;100.00;100918.84;5061741;28;19924;-46
2023/07/16 01:31:53;;;;;;;;;;;;;;;15.03;100.00;100921.41;5062488;28;19923;-46
2023/07/16 01:34:18;;;;;;;;;;;;;;;15.01;100.00;100923.13;5064141;28;20342;-46
2023/07/16 01:36:45;;;;;;;;;;;;;;;14.99;100.00;100921.38;5036226;28;20447;-50
2023/07/16 01:39:10;;;;;;;;;;;;;;;14.95;100.00;100927.34;5057728;28;19920;-48
2023/07/16 01:41:35;;;;;;;;;;;;;;;14.91;100.00;100920.41;5064967;27;19965;-48
2023/07/16 01:44:00;;;;;;;;;;;;;;;14.87;100.00;100922.09;5044662;28;20643;-48
2023/07/16 01:46:26;;;;;;;;;;;;;;;14.85;100.00;100934.13;5060839;28;19921;-45
2023/07/16 01:48:51;;;;;;;;;;;;;;;14.81;100.00;100922.03;5061034;28;19925;-46
2023/07/16 01:51:16;;;;;;;;;;;;;;;14.83;100.00;100922.03;5062839;28;19927;-46
2023/07/16 01:53:42;;;;;;;;;;;;;;;14.83;100.00;100929.81;5054566;28;19917;-46
2023/07/16 01:56:07;;;;;;;;;;;;;;;14.81;100.00;100922.03;5066380;28;20329;-48
2023/07/16 01:58:32;;;;;;;;;;;;;;;14.80;100.00;100928.03;5061927;27;19977;-46
2023/07/16 02:00:57;;;;;;;;;;;;;;;14.81;100.00;100922.03;5061034;28;19993;-46
2023/07/16 02:03:23;;;;;;;;;;;;;;;14.80;100.00;100919.41;5044860;28;20396;-49
2023/07/16 02:05:48;;;;;;;;;;;;;;;14.79;100.00;100917.66;5055992;27;19916;-49
2023/07/16 02:08:13;;;;;;;;;;;;;;;14.75;100.00;100906.44;5056193;27;19924;-47
2023/07/16 02:10:39;;;;;;;;;;;;;;;14.75;100.00;100915.06;5040032;28;19917;-45
2023/07/16 02:13:04;;;;;;;;;;;;;;;14.77;100.00;100919.38;5047093;28;19927;-45
2023/07/16 02:15:29;;;;;;;;;;;;;;;14.79;100.00;100923.72;5066401;28;19921;-46
2023/07/16 02:17:54;;;;;;;;;;;;;;;14.82;100.00;100928.06;5068110;27;20008;-46
2023/07/16 02:20:20;;;;;;;;;;;;;;;14.86;100.00;100920.34;5065696;28;19928;-46
2023/07/16 02:22:45;;;;;;;;;;;;;;;14.83;100.00;100922.91;5061300;28;19924;-44
2023/07/16 02:25:10;;;;;;;;;;;;;;;14.83;100.00;100917.72;5062402;28;20334;-46
2023/07/16 02:27:35;;;;;;;;;;;;;;;14.84;100.00;100923.78;5062367;28;20423;-45
2023/07/16 02:30:01;;;;;;;;;;;;;;;14.83;100.00;100920.31;5059787;28;19989;-46
2023/07/16 02:32:26;;;;;;;;;;;;;;;14.85;100.00;100928.97;5058748;28;19927;-43
2023/07/16 02:34:51;;;;;;;;;;;;;;;14.90;100.00;100929.88;5061687;28;19924;-46
2023/07/16 02:37:16;;;;;;;;;;;;;;;15.00;100.00;100930.88;5059253;27;20011;-44
2023/07/16 02:39:42;;;;;;;;;;;;;;;15.10;100.00;100939.59;5042095;28;20331;-45
2023/07/16 02:42:08;;;;;;;;;;;;;;;15.24;100.00;100938.03;5064058;28;19928;-45
2023/07/16 02:44:33;;;;;;;;;;;;;;;15.25;100.00;100935.44;5067550;28;20472;-44
2023/07/16 02:46:59;;;;;;;;;;;;;;;15.30;100.00;100940.69;5064527;28;19920;-44
2023/07/16 02:49:24;;;;;;;;;;;;;;;15.30;100.00;100938.09;5066184;27;20461;-44
2023/07/16 02:51:49;;;;;;;;;;;;;;;15.37;100.00;100950.25;5062032;27;19920;-45
2023/07/16 02:54:14;;;;;;;;;;;;;;;15.33;100.00;100945.88;5058908;28;19982;-44
2023/07/16 02:56:40;;;;;;;;;;;;;;;15.31;100.00;100949.31;5058404;28;19939;-44
2023/07/16 02:59:05;;;;;;;;;;;;;;;15.29;100.00;100946.72;5066988;28;19982;-46
2023/07/16 03:01:31;;;;;;;;;;;;;;;15.26;100.00;100950.13;5067632;27;20354;-49
2023/07/16 03:03:56;;;;;;;;;;;;;;;15.25;100.00;100950.13;5063102;28;19917;-49
2023/07/16 03:06:21;;;;;;;;;;;;;;;15.21;100.00;100954.41;5062104;28;19923;-46
2023/07/16 03:08:46;;;;;;;;;;;;;;;15.18;100.00;100945.75;5060594;28;20378;-46
2023/07/16 03:11:12;;;;;;;;;;;;;;;15.18;100.00;100945.75;5060365;28;20297;-46
2023/07/16 03:13:37;;;;;;;;;;;;;;;15.16;100.00;100950.00;5064497;27;20325;-54
2023/07/16 03:16:02;;;;;;;;;;;;;;;15.18;100.00;100956.09;5056863;27;19920;-54
2023/07/16 03:18:29;;;;;;;;;;;;;;;15.16;100.00;100952.59;5062747;28;19979;-54
2023/07/16 03:20:54;;;;;;;;;;;;;;;15.19;100.00;100958.69;5059234;28;19943;-53
2023/07/16 03:23:20;;;;;;;;;;;;;;;15.16;100.00;100962.97;5062043;28;20723;-53
2023/07/16 03:25:45;;;;;;;;;;;;;;;15.16;100.00;100968.16;5065624;27;20359;-54
2023/07/16 03:28:10;;;;;;;;;;;;;;;15.13;100.00;100963.81;5060542;27;19924;-54
2023/07/16 03:30:37;;;;;;;;;;;;;;;15.15;100.00;100967.28;5065252;27;19928;-53
2023/07/16 03:33:02;;;;;;;;;;;;;;;15.10;100.00;100962.91;5058260;28;20016;-54
2023/07/16 03:35:27;;;;;;;;;;;;;;;15.12;100.00;100975.03;5062342;28;19988;-54
2023/07/16 03:37:53;;;;;;;;;;;;;;;15.12;100.00;100980.22;5059187;28;19925;-48
2023/07/16 03:40:21;;;;;;;;;;;;;;;15.11;100.00;100970.72;5057040;28;19969;-45
2023/07/16 03:42:47;;;;;;;;;;;;;;;15.19;100.00;100999.28;5060670;28;19924;-48
2023/07/16 03:45:13;;;;;;;;;;;;;;;15.11;100.00;100985.38;5058864;28;20247;-46
2023/07/16 03:47:38;;;;;;;;;;;;;;;15.11;100.00;100980.19;5055452;28;19920;-46
2023/07/16 03:50:04;;;;;;;;;;;;;;;15.10;100.00;100988.78;5041246;28;19973;-45
2023/07/16 03:52:29;;;;;;;;;;;;;;;15.12;100.00;100989.72;5059755;28;19922;-45
2023/07/16 03:54:54;;;;;;;;;;;;;;;15.10;100.00;100997.44;5061183;27;20362;-46
2023/07/16 03:57:20;;;;;;;;;;;;;;;15.10;100.00;101012.09;5057774;28;19921;-45
2023/07/16 03:59:45;;;;;;;;;;;;;;;15.02;100.00;101012.03;5057694;28;19998;-45
2023/07/16 04:02:10;;;;;;;;;;;;;;;15.00;99.73;101005.97;5057724;28;19945;-46
2023/07/16 04:04:36;;;;;;;;;;;;;;;14.95;99.70;101011.09;5058183;28;19920;-45
2023/07/16 04:07:01;;;;;;;;;;;;;;;14.94;99.14;101011.06;5060264;28;19935;-45
2023/07/16 04:09:26;;;;;;;;;;;;;;;14.95;99.29;101010.22;5040449;27;20402;-46
2023/07/16 04:11:52;;;;;;;;;;;;;;;14.89;99.72;101016.19;5037264;28;20378;-46
2023/07/16 04:14:17;;;;;;;;;;;;;;;14.88;99.01;101019.63;5054977;28;19999;-46
2023/07/16 04:16:43;;;;;;;;;;;;;;;14.86;99.49;101016.13;5059281;28;19929;-44
2023/07/16 04:19:09;;;;;;;;;;;;;;;14.85;99.33;101026.47;5058505;28;19960;-44
2023/07/16 04:21:34;;;;;;;;;;;;;;;14.86;98.54;101029.06;5056058;27;19917;-46
2023/07/16 04:23:59;;;;;;;;;;;;;;;14.89;97.77;101026.53;5058916;28;20453;-44
2023/07/16 04:26:24;;;;;;;;;;;;;;;14.90;97.42;101033.44;5058146;28;19912;-48
2023/07/16 04:28:49;;;;;;;;;;;;;;;14.97;96.69;101037.84;5063721;28;19921;-45
2023/07/16 04:31:15;;;;;;;;;;;;;;;14.93;95.95;101033.50;5053232;28;19924;-45
2023/07/16 04:33:40;;;;;;;;;;;;;;;14.99;96.24;101043.94;5059003;28;19969;-45
2023/07/16 04:36:05;;;;;;;;;;;;;;;15.19;95.10;101044.19;5064743;28;19920;-44
2023/07/16 04:38:30;;;;;;;;;;;;;;;15.30;93.56;101057.28;5044812;28;20019;-45
2023/07/16 04:40:56;;;;;;;;;;;;;;;15.60;93.87;101053.28;5056304;28;20301;-46
2023/07/16 04:43:21;;;;;;;;;;;;;;;16.08;90.16;101052.91;5058013;27;19931;-45
2023/07/16 04:45:46;;;;;;;;;;;;;;;16.50;90.30;101061.88;5046656;28;19958;-45
2023/07/16 04:48:12;;;;;;;;;;;;;;;16.81;84.77;101060.38;5059751;27;19920;-46
2023/07/16 04:50:38;;;;;;;;;;;;;;;17.04;84.93;101056.16;5061195;28;19921;-47
2023/07/16 04:53:03;;;;;;;;;;;;;;;17.08;83.03;101067.44;5052822;28;20378;-48
2023/07/16 04:55:28;;;;;;;;;;;;;;;17.21;80.37;101078.75;5060369;27;19968;-47
2023/07/16 04:57:54;;;;;;;;;;;;;;;17.43;82.20;101077.97;5043042;27;19931;-49
2023/07/16 05:00:19;;;;;;;;;;;;;;;17.60;80.54;101078.91;5061709;27;19928;-47
2023/07/16 05:02:44;;;;;;;;;;;;;;;17.65;78.13;101086.69;5061637;28;20019;-46
2023/07/16 05:05:09;;;;;;;;;;;;;;;17.53;80.70;101090.13;5059351;28;20396;-45
2023/07/16 05:07:35;;;;;;;;;;;;;;;17.25;79.48;101083.97;5058460;28;19925;-45
2023/07/16 05:10:00;;;;;;;;;;;;;;;16.85;81.66;101083.75;5055413;28;19928;-48
2023/07/16 05:12:25;;;;;;;;;;;;;;;16.81;82.20;101081.16;5062353;27;19916;-46
2023/07/16 05:14:51;;;;;;;;;;;;;;;16.95;83.39;101076.91;5058199;28;19921;-46
2023/07/16 05:17:16;;;;;;;;;;;;;;;17.29;80.16;101092.63;5057125;28;19921;-45
2023/07/16 05:19:42;;;;;;;;;;;;;;;17.49;80.24;101084.94;5059772;28;19932;-45
2023/07/16 05:22:07;;;;;;;;;;;;;;;17.71;78.00;101089.31;5064963;28;19973;-45
2023/07/16 05:24:32;;;;;;;;;;;;;;;17.90;76.93;101082.47;5065325;28;19921;-45
2023/07/16 05:26:58;;;;;;;;;;;;;;;17.67;77.16;101093.66;5062198;28;20015;-44
2023/07/16 05:29:23;;;;;;;;;;;;;;;17.47;78.09;101084.91;5063720;28;20032;-46
2023/07/16 05:31:49;;;;;;;;;;;;;;;17.73;78.94;101090.25;5059880;28;20019;-45
2023/07/16 05:34:14;;;;;;;;;;;;;;;18.15;78.20;101091.16;5065078;27;19921;-45
2023/07/16 05:36:41;;;;;;;;;;;;;;;18.61;75.34;101094.59;5062682;28;20020;-45
2023/07/16 05:39:08;;;;;;;;;;;;;;;18.79;73.99;101096.34;5062365;28;19917;-56
2023/07/16 05:41:33;;;;;;;;;;;;;;;18.91;72.60;101100.66;5061213;28;19959;-55
2023/07/16 05:43:58;;;;;;;;;;;;;;;19.06;72.31;101102.38;5062870;28;19960;-56
2023/07/16 05:46:24;;;;;;;;;;;;;;;19.25;71.46;101097.09;5065828;27;19916;-55
2023/07/16 05:48:49;;;;;;;;;;;;;;;19.38;70.87;101102.25;5059249;28;20003;-56
2023/07/16 05:51:14;;;;;;;;;;;;;;;19.36;69.29;101104.00;5050971;28;19985;-56
2023/07/16 05:53:39;;;;;;;;;;;;;;;19.34;69.83;101103.13;5043576;28;19924;-56
2023/07/16 05:56:05;;;;;;;;;;;;;;;19.25;67.01;101109.25;5062540;28;19920;-56
2023/07/16 05:58:30;;;;;;;;;;;;;;;19.25;73.11;101110.13;5064629;27;20370;-56
2023/07/16 06:00:55;;;;;;;;;;;;;;;19.40;70.55;101108.31;5067600;28;20007;-57
2023/07/16 06:03:20;;;;;;;;;;;;;;;19.60;70.05;101116.97;5063690;27;20011;-55
2023/07/16 06:05:46;;;;;;;;;;;;;;;19.57;68.42;101127.38;5062822;28;19985;-55
2023/07/16 06:08:12;;;;;;;;;;;;;;;19.63;67.20;101129.97;5065402;27;19931;-56
2023/07/16 06:10:38;;;;;;;;;;;;;;;19.53;68.46;101116.06;5061782;28;19932;-56
2023/07/16 06:13:03;;;;;;;;;;;;;;;19.39;68.30;101119.63;5061864;28;19920;-57
2023/07/16 06:15:29;;;;;;;;;;;;;;;19.48;68.88;101127.44;5064773;28;20278;-56
2023/07/16 06:17:54;;;;;;;;;;;;;;;19.24;70.67;101126.66;5066213;27;19947;-55
2023/07/16 06:20:19;;;;;;;;;;;;;;;19.35;69.21;101129.19;5057150;27;19971;-56
2023/07/16 06:22:44;;;;;;;;;;;;;;;19.44;68.82;101125.69;5059566;28;20378;-57
2023/07/16 06:25:10;;;;;;;;;;;;;;;19.22;67.90;101123.16;5059662;28;19942;-57
2023/07/16 06:27:36;;;;;;;;;;;;;;;19.29;70.32;101122.28;5057177;27;20007;-56
2023/07/16 06:30:01;;;;;;;;;;;;;;;19.52;66.94;101140.44;5060762;28;20366;-57
2023/07/16 06:32:26;;;;;;;;;;;;;;;19.51;67.31;101140.44;5060953;28;19921;-56
2023/07/16 06:34:51;;;;;;;;;;;;;;;19.31;69.38;101130.09;5057788;28;19929;-57
2023/07/16 06:37:17;;;;;;;;;;;;;;;19.49;66.15;101135.25;5056709;28;20289;-56
2023/07/16 06:39:42;;;;;;;;;;;;;;;19.28;68.89;101138.78;5036486;28;20019;-57
2023/07/16 06:42:07;;;;;;;;;;;;;;;19.34;67.74;101147.44;5051910;28;20016;-56
2023/07/16 06:44:33;;;;;;;;;;;;;;;19.29;67.70;101144.84;5058948;27;19977;-57
2023/07/16 06:46:58;;;;;;;;;;;;;;;19.47;66.77;101162.19;5060635;28;20019;-56
2023/07/16 06:49:23;;;;;;;;;;;;;;;19.38;66.61;101164.84;5059459;28;19936;-56
2023/07/16 06:51:48;;;;;;;;;;;;;;;19.27;68.54;101152.69;5055204;28;19932;-57
2023/07/16 06:54:14;;;;;;;;;;;;;;;19.47;68.08;101170.00;5058867;28;19946;-56
2023/07/16 06:56:39;;;;;;;;;;;;;;;19.42;66.25;101153.53;5058794;28;19932;-57
2023/07/16 06:59:04;;;;;;;;;;;;;;;19.37;67.63;101170.94;5059302;28;19932;-56
2023/07/16 07:01:30;;;;;;;;;;;;;;;19.47;68.37;101167.41;5062909;28;19931;-56
2023/07/16 07:03:55;;;;;;;;;;;;;;;19.51;67.40;101169.13;5052636;27;19928;-57
2023/07/16 07:06:21;;;;;;;;;;;;;;;19.54;66.44;101175.22;5060779;27;19916;-57
2023/07/16 07:08:46;;;;;;;;;;;;;;;19.49;67.42;101176.97;5057004;28;19925;-57
2023/07/16 07:11:11;;;;;;;;;;;;;;;19.46;67.54;101179.56;5059800;27;19979;-56
2023/07/16 07:13:37;;;;;;;;;;;;;;;19.50;66.35;101183.06;5055753;28;19920;-53
2023/07/16 07:16:27;;;;;;;;;;;;;;;19.57;66.19;101179.53;5055259;28;19925;-54
2023/07/16 07:18:58;;;;;;;;;;;;;;;19.52;66.24;101181.28;5056952;28;19927;-49
2023/07/16 07:21:24;;;;;;;;;;;;;;;19.48;66.72;101184.81;5056529;28;19974;-47
2023/07/16 07:23:49;;;;;;;;;;;;;;;19.61;66.59;101196.97;5056433;28;20020;-48
2023/07/16 07:26:14;;;;;;;;;;;;;;;19.68;66.62;101201.28;5059579;28;19936;-48
2023/07/16 07:28:39;;;;;;;;;;;;;;;19.74;65.25;101195.16;5057331;28;20297;-48
2023/07/16 07:31:05;;;;;;;;;;;;;;;19.73;67.20;101194.28;5056614;28;19927;-46
2023/07/16 07:33:32;;;;;;;;;;;;;;;19.74;66.85;101196.03;5059975;28;20011;-46
2023/07/16 07:35:57;;;;;;;;;;;;;;;19.89;66.62;101192.47;5038000;27;19921;-47
2023/07/16 07:38:22;;;;;;;;;;;;;;;19.95;66.61;101195.03;5058192;27;20294;-48
2023/07/16 07:40:47;;;;;;;;;;;;;;;19.95;65.22;101196.78;5039793;28;19993;-48
2023/07/16 07:43:13;;;;;;;;;;;;;;;19.94;67.79;101195.06;5039514;28;20015;-49
2023/07/16 07:45:38;;;;;;;;;;;;;;;20.14;65.49;101193.19;5059149;28;20321;-49
2023/07/16 07:48:03;;;;;;;;;;;;;;;20.11;65.44;101205.41;5058188;28;19944;-48
2023/07/16 07:50:29;;;;;;;;;;;;;;;20.11;66.38;101206.28;5060547;28;19931;-47
2023/07/16 07:52:54;;;;;;;;;;;;;;;20.18;64.42;101196.66;5056189;28;20012;-45
2023/07/16 07:55:19;;;;;;;;;;;;;;;20.29;66.10;101200.94;5057591;28;19987;-45
2023/07/16 07:57:45;;;;;;;;;;;;;;;20.35;63.38;101203.50;5058525;28;20014;-48
2023/07/16 08:00:11;;;;;;;;;;;;;;;20.35;65.11;101190.44;5053688;28;20390;-49
2023/07/16 08:02:37;;;;;;;;;;;;;;;20.45;64.05;101204.38;5056945;28;20305;-46
2023/07/16 08:05:03;;;;;;;;;;;;;;;20.34;64.91;101206.16;5055797;27;19928;-47
2023/07/16 08:07:29;;;;;;;;;;;;;;;20.36;64.18;101199.16;5069892;27;19935;-49
2023/07/16 08:09:54;;;;;;;;;;;;;;;20.33;64.84;101204.41;5057198;28;19920;-47
2023/07/16 08:12:19;;;;;;;;;;;;;;;20.50;65.64;101196.47;5054445;28;19980;-45
2023/07/16 08:14:45;;;;;;;;;;;;;;;20.88;64.90;101204.00;5055166;28;20348;-50
2023/07/16 08:17:10;;;;;;;;;;;;;;;20.97;62.33;101205.66;5048869;28;19985;-46
2023/07/16 08:19:35;;;;;;;;;;;;;;;20.93;63.49;101198.72;5043493;27;19927;-48
2023/07/16 08:22:00;;;;;;;;;;;;;;;20.98;62.12;101210.88;5056356;28;20015;-50
2023/07/16 08:24:26;;;;;;;;;;;;;;;21.06;61.00;101218.66;5058944;28;19927;-51
2023/07/16 08:26:51;;;;;;;;;;;;;;;20.72;61.65;101208.50;5075116;27;19921;-48
2023/07/16 08:29:16;;;;;;;;;;;;;;;20.66;63.22;101218.13;5055709;28;20010;-48
2023/07/16 08:31:42;;;;;;;;;;;;;;;20.78;63.80;101208.44;5058014;28;19920;-46
2023/07/16 08:34:07;;;;;;;;;;;;;;;21.03;61.29;101205.59;5056709;28;19964;-50
2023/07/16 08:36:33;;;;;;;;;;;;;;;20.89;62.53;101204.00;5059370;28;19928;-49
2023/07/16 08:38:58;;;;;;;;;;;;;;;21.12;62.18;101218.59;5058563;28;19928;-48
2023/07/16 08:41:24;;;;;;;;;;;;;;;21.31;62.69;101211.47;5057941;28;19921;-48
2023/07/16 08:43:50;;;;;;;;;;;;;;;21.37;59.72;101214.88;5057336;28;19935;-47
2023/07/16 08:46:15;;;;;;;;;;;;;;;21.29;61.05;101213.22;5056013;28;20019;-48
2023/07/16 08:48:40;;;;;;;;;;;;;;;21.31;61.26;101220.19;5058986;28;20302;-48
2023/07/16 08:51:07;;;;;;;;;;;;;;;21.36;59.59;101217.53;5060529;28;19935;-49
2023/07/16 08:53:32;;;;;;;;;;;;;;;21.51;60.38;101221.72;5057964;28;19917;-47
2023/07/16 08:55:58;;;;;;;;;;;;;;;21.41;60.25;101226.16;5059514;28;19921;-48
2023/07/16 08:58:23;;;;;;;;;;;;;;;21.53;61.31;101227.78;5065196;28;19921;-49
2023/07/16 09:00:49;;;;;;;;;;;;;;;21.64;60.05;101233.75;5058618;28;19921;-50
2023/07/16 09:03:17;;;;;;;;;;;;;;;21.52;61.34;101229.53;5060910;28;20029;-48
2023/07/16 09:05:44;;;;;;;;;;;;;;;21.48;60.49;101237.41;5056782;28;19924;-48
2023/07/16 09:08:09;;;;;;;;;;;;;;;21.39;59.87;101244.50;5045336;27;19976;-50
2023/07/16 09:10:35;;;;;;;;;;;;;;;21.19;58.39;101241.19;5060624;28;19925;-49
2023/07/16 09:13:01;;;;;;;;;;;;;;;21.09;59.36;101245.63;5062571;28;19924;-46
2023/07/16 09:15:28;;;;;;;;;;;;;;;20.95;60.33;101250.13;5063940;28;19963;-51
2023/07/16 09:17:54;;;;;;;;;;;;;;;20.89;61.33;101248.44;5059236;28;20078;-48
2023/07/16 09:20:19;;;;;;;;;;;;;;;20.85;62.31;101244.09;5056968;28;20487;-48
2023/07/16 09:22:44;;;;;;;;;;;;;;;20.87;61.68;101239.75;5054063;28;20447;-51
2023/07/16 09:25:10;;;;;;;;;;;;;;;20.78;61.31;101247.66;5053868;28;20366;-48
2023/07/16 09:27:35;;;;;;;;;;;;;;;20.75;61.56;101247.69;5056664;28;19977;-46
2023/07/16 09:30:02;;;;;;;;;;;;;;;20.74;61.21;101243.31;5038253;27;19936;-46
2023/07/16 09:32:34;;;;;;;;;;;;;;;20.70;61.63;101252.06;5051147;28;19950;-49
2023/07/16 09:34:59;;;;;;;;;;;;;;;20.61;61.78;101245.16;5056864;28;19924;-48
2023/07/16 09:37:26;;;;;;;;;;;;;;;20.59;61.30;101259.97;5055429;28;20413;-50
2023/07/16 09:39:51;;;;;;;;;;;;;;;20.64;61.25;101257.34;5056528;28;19920;-46
2023/07/16 09:42:18;;;;;;;;;;;;;;;20.63;60.63;101266.06;5059029;28;20301;-45
2023/07/16 09:44:44;;;;;;;;;;;;;;;20.59;61.68;101257.38;5062823;27;19921;-45
2023/07/16 09:47:09;;;;;;;;;;;;;;;20.73;61.11;101265.09;5055081;28;19927;-46
2023/07/16 09:49:35;;;;;;;;;;;;;;;20.78;61.66;101252.88;5056419;28;19921;-46
2023/07/16 09:52:01;;;;;;;;;;;;;;;20.88;62.07;101264.13;5062864;28;20401;-47
2023/07/16 09:54:31;;;;;;;;;;;;;;;21.04;60.75;101264.84;5057675;28;19948;-46
2023/07/16 09:56:58;;;;;;;;;;;;;;;20.97;60.46;101274.50;5054757;28;19920;-45
2023/07/16 09:59:25;;;;;;;;;;;;;;;20.80;61.79;101272.00;5054155;28;19927;-46
2023/07/16 10:01:51;;;;;;;;;;;;;;;20.84;63.06;101270.25;5054421;28;20000;-45
2023/07/16 10:04:19;;;;;;;;;;;;;;;21.24;61.80;101277.78;5061850;28;20049;-46
2023/07/16 10:07:11;;;;;;;;;;;;;;;21.38;60.95;101271.53;5061260;28;19912;-45
2023/07/16 10:09:40;;;;;;;;;;;;;;;21.56;61.13;101265.25;5026466;28;20293;-47
2023/07/16 10:12:15;;;;;;;;;;;;;;;21.79;58.62;101274.59;5060804;28;19913;-50
2023/07/16 10:14:44;;;;;;;;;;;;;;;21.68;58.98;101282.56;5059662;28;19917;-48
2023/07/16 10:17:29;;;;;;;;;;;;;;;21.57;60.32;101285.31;5059509;28;19924;-49
2023/07/16 10:19:55;;;;;;;;;;;;;;;21.54;58.43;101284.47;5059908;28;19974;-48
2023/07/16 10:22:30;;;;;;;;;;;;;;;21.55;60.83;101291.44;5065667;27;19962;-47
2023/07/16 10:24:55;;;;;;;;;;;;;;;21.76;60.52;101290.34;5062443;28;19940;-48
2023/07/16 10:27:28;;;;;;;;;;;;;;;21.84;59.39;101292.00;5064494;27;20383;-47
2023/07/16 10:29:54;;;;;;;;;;;;;;;21.86;58.38;101300.69;5043305;28;19913;-46
2023/07/16 10:32:20;;;;;;;;;;;;;;;21.93;58.37;101294.50;5063519;28;19917;-49
2023/07/16 10:34:45;;;;;;;;;;;;;;;22.02;56.59;101305.72;5061819;28;19936;-49
2023/07/16 10:37:10;;;;;;;;;;;;;;;21.91;57.65;101317.22;5062926;27;19960;-49
2023/07/16 10:39:36;;;;;;;;;;;;;;;21.86;58.35;101305.94;5056071;28;19917;-45
2023/07/16 10:42:01;;;;;;;;;;;;;;;21.88;56.79;101304.16;5062509;28;19969;-48
2023/07/16 10:44:27;;;;;;;;;;;;;;;22.15;56.83;101307.38;5039325;28;19920;-46
2023/07/16 10:46:54;;;;;;;;;;;;;;;22.21;55.68;101304.66;5054341;28;20008;-47
2023/07/16 10:49:29;;;;;;;;;;;;;;;22.30;56.93;101314.16;5053171;28;19927;-44
2023/07/16 10:51:54;;;;;;;;;;;;;;;22.57;56.38;101311.16;5056364;28;20302;-47
2023/07/16 10:54:19;;;;;;;;;;;;;;;22.74;55.12;101317.00;5057172;28;19924;-46
2023/07/16 10:56:47;;;;;;;;;;;;;;;22.69;54.03;101317.94;5059806;27;20063;-47
2023/07/16 10:59:12;;;;;;;;;;;;;;;22.55;53.98;101331.25;5055253;28;19924;-45
2023/07/16 11:01:37;;;;;;;;;;;;;;;22.12;54.90;101310.88;5056361;28;19973;-47
2023/07/16 11:04:07;;;;;;;;;;;;;;;21.93;55.64;101319.81;5035980;28;19924;-49
2023/07/16 11:06:32;;;;;;;;;;;;;;;21.65;55.35;101330.56;5038206;28;20335;-45
2023/07/16 11:09:08;;;;;;;;;;;;;;;21.35;56.60;101330.84;5056457;27;19929;-47
2023/07/16 11:11:33;;;;;;;;;;;;;;;21.08;57.90;101324.09;5052916;28;19925;-48
2023/07/16 11:13:59;;;;;;;;;;;;;;;21.12;58.12;101331.03;5054631;28;19940;-48
2023/07/16 11:16:24;;;;;;;;;;;;;;;21.29;57.70;101331.78;5056008;28;20434;-45
2023/07/16 11:18:50;;;;;;;;;;;;;;;21.35;57.37;101336.09;5050628;28;19967;-48
2023/07/16 11:21:18;;;;;;;;;;;;;;;21.35;57.05;101330.84;5061953;27;19970;-47
2023/07/16 11:23:43;;;;;;;;;;;;;;;21.36;57.53;101346.56;5060426;28;19956;-45
2023/07/16 11:26:09;;;;;;;;;;;;;;;21.54;56.28;101349.91;5060048;28;20204;-48
2023/07/16 11:28:38;;;;;;;;;;;;;;;21.66;57.37;101342.78;5060318;27;20016;-47
2023/07/16 11:31:12;;;;;;;;;;;;;;;21.89;56.24;101349.50;5058378;28;20503;-45
2023/07/16 11:33:38;;;;;;;;;;;;;;;21.91;56.53;101356.50;5059128;28;19928;-46
2023/07/16 11:36:03;;;;;;;;;;;;;;;22.00;55.70;101352.03;5055965;28;19921;-48
2023/07/16 11:38:29;;;;;;;;;;;;;;;21.78;57.01;101360.13;5054303;28;20207;-46
2023/07/16 11:40:54;;;;;;;;;;;;;;;21.75;57.42;101359.28;5059924;28;19948;-46
2023/07/16 11:43:19;;;;;;;;;;;;;;;21.70;57.53;101359.31;5058574;28;19929;-46
2023/07/16 11:45:47;;;;;;;;;;;;;;;21.85;57.83;101368.78;5059447;28;19929;-48
2023/07/16 11:48:12;;;;;;;;;;;;;;;21.82;57.30;101359.19;5044829;28;21494;-48
2023/07/16 11:50:37;;;;;;;;;;;;;;;21.71;58.80;101355.81;5048063;28;20339;-46
2023/07/16 11:53:03;;;;;;;;;;;;;;;21.89;58.85;101370.47;5064198;27;19920;-47
2023/07/16 11:55:28;;;;;;;;;;;;;;;22.01;56.71;101365.09;5047740;28;19927;-44
2023/07/16 11:57:54;;;;;;;;;;;;;;;21.80;58.31;101367.94;5053219;28;20028;-46
2023/07/16 12:00:19;;;;;;;;;;;;;;;21.75;58.65;101367.13;5051382;28;19929;-46
2023/07/16 12:02:51;;;;;;;;;;;;;;;21.59;61.61;101382.09;5054231;28;20243;-49
2023/07/16 12:05:24;;;;;;;;;;;;;;;21.03;65.61;101389.50;5054728;28;20023;-45
2023/07/16 12:07:49;;;;;;;;;;;;;;;20.74;67.39;101399.25;5056484;27;19924;-44
2023/07/16 12:10:14;;;;;;;;;;;;;;;20.79;67.60;101390.50;5059013;28;19920;-44
2023/07/16 12:12:40;;;;;;;;;;;;;;;20.84;69.30;101380.91;5060602;27;20367;-44
2023/07/16 12:15:06;;;;;;;;;;;;;;;20.95;69.72;101379.97;5063451;28;20430;-52
2023/07/16 12:17:32;;;;;;;;;;;;;;;21.16;68.65;101390.25;5062021;28;19963;-53
2023/07/16 12:19:57;;;;;;;;;;;;;;;21.48;67.33;101383.94;5064399;28;20423;-53
2023/07/16 12:22:23;;;;;;;;;;;;;;;21.87;64.63;101380.97;5062519;27;19932;-52
2023/07/16 12:24:48;;;;;;;;;;;;;;;22.22;60.75;101379.75;5050888;28;19917;-54
2023/07/16 12:27:17;;;;;;;;;;;;;;;22.38;61.43;101389.13;5054922;28;19961;-54